Camp Springs, North Carolina
Current Conditions -  °F | °C
As of 7:55 AM on Thursday 23 Oct 2014 (Local Time) from KSIF Reporting Station
Haze Haze  
Wind Chill: 35°   Ceiling: Unl
Heat Index: 35°   Visibility: 5mi
Dew Point: 35°   Wind: 0mph
Humidity: 99%   Direction: NA
Pressure: 30.04"   Gusts: NA
Location:  36.3355°N, 79.6561°W
Report Text: KSIF 231155Z AUTO 00000KT 5SM BR CLR 02/02 A3004 RMK AO2 T00170015 10051 20017
Loading
Personal Weather Stations






























Interactive Weather Map
Tropical Storm Tracking
New forecast layout! Learn more

10-Day Weather Forecast

Advertisements
Track Severe Weather on mobile